sensor_id;sensor_type;location;lat;lon;timestamp;P1;durP1;ratioP1;P2;durP2;ratioP2
37787;SDS011;23627;53.302;-6.362;2023-07-20T00:01:25;2.40;;;1.65;;
37787;SDS011;23627;53.302;-6.362;2023-07-20T00:03:51;3.78;;;2.20;;
37787;SDS011;23627;53.302;-6.362;2023-07-20T00:06:23;3.25;;;1.60;;
37787;SDS011;23627;53.302;-6.362;2023-07-20T00:08:54;2.08;;;1.52;;
37787;SDS011;23627;53.302;-6.362;2023-07-20T00:11:20;2.72;;;1.60;;
37787;SDS011;23627;53.302;-6.362;2023-07-20T00:13:50;1.75;;;1.40;;
37787;SDS011;23627;53.302;-6.362;2023-07-20T00:16:15;2.35;;;1.60;;
37787;SDS011;23627;53.302;-6.362;2023-07-20T00:18:41;1.90;;;1.45;;
37787;SDS011;23627;53.302;-6.362;2023-07-20T00:21:07;2.75;;;1.67;;
37787;SDS011;23627;53.302;-6.362;2023-07-20T00:23:33;2.88;;;1.27;;
37787;SDS011;23627;53.302;-6.362;2023-07-20T00:25:58;2.67;;;1.58;;
37787;SDS011;23627;53.302;-6.362;2023-07-20T00:28:24;1.95;;;1.45;;
37787;SDS011;23627;53.302;-6.362;2023-07-20T00:30:50;2.47;;;1.80;;
37787;SDS011;23627;53.302;-6.362;2023-07-20T00:33:16;2.92;;;1.40;;
37787;SDS011;23627;53.302;-6.362;2023-07-20T00:35:43;2.78;;;1.70;;
37787;SDS011;23627;53.302;-6.362;2023-07-20T00:38:08;3.08;;;1.63;;
37787;SDS011;23627;53.302;-6.362;2023-07-20T00:40:38;2.20;;;1.60;;
37787;SDS011;23627;53.302;-6.362;2023-07-20T00:43:04;2.90;;;1.88;;
37787;SDS011;23627;53.302;-6.362;2023-07-20T00:45:30;2.38;;;1.60;;
37787;SDS011;23627;53.302;-6.362;2023-07-20T00:47:57;2.88;;;1.50;;
37787;SDS011;23627;53.302;-6.362;2023-07-20T00:50:24;2.20;;;1.40;;
37787;SDS011;23627;53.302;-6.362;2023-07-20T00:52:50;2.38;;;1.88;;
37787;SDS011;23627;53.302;-6.362;2023-07-20T00:55:17;2.60;;;1.50;;
37787;SDS011;23627;53.302;-6.362;2023-07-20T00:57:44;2.65;;;1.92;;
37787;SDS011;23627;53.302;-6.362;2023-07-20T01:00:10;2.80;;;1.70;;
37787;SDS011;23627;53.302;-6.362;2023-07-20T01:02:37;2.65;;;1.80;;
37787;SDS011;23627;53.302;-6.362;2023-07-20T01:05:02;3.05;;;1.88;;
37787;SDS011;23627;53.302;-6.362;2023-07-20T01:07:31;3.67;;;2.00;;
37787;SDS011;23627;53.302;-6.362;2023-07-20T01:10:15;2.38;;;1.65;;
37787;SDS011;23627;53.302;-6.362;2023-07-20T01:12:46;2.70;;;1.77;;
37787;SDS011;23627;53.302;-6.362;2023-07-20T01:15:13;2.15;;;1.50;;
37787;SDS011;23627;53.302;-6.362;2023-07-20T01:17:39;2.33;;;1.70;;
37787;SDS011;23627;53.302;-6.362;2023-07-20T01:20:06;2.60;;;1.58;;
37787;SDS011;23627;53.302;-6.362;2023-07-20T01:33:48;3.35;;;1.70;;
37787;SDS011;23627;53.302;-6.362;2023-07-20T01:36:16;2.53;;;1.45;;
37787;SDS011;23627;53.302;-6.362;2023-07-20T01:38:43;3.22;;;1.50;;
37787;SDS011;23627;53.302;-6.362;2023-07-20T01:41:10;3.63;;;1.80;;
37787;SDS011;23627;53.302;-6.362;2023-07-20T01:43:36;2.80;;;1.58;;
37787;SDS011;23627;53.302;-6.362;2023-07-20T01:46:02;2.90;;;1.80;;
37787;SDS011;23627;53.302;-6.362;2023-07-20T01:48:27;2.25;;;1.35;;
37787;SDS011;23627;53.302;-6.362;2023-07-20T01:50:53;1.92;;;1.45;;
37787;SDS011;23627;53.302;-6.362;2023-07-20T01:53:20;2.20;;;1.63;;
37787;SDS011;23627;53.302;-6.362;2023-07-20T01:55:46;2.08;;;1.70;;
37787;SDS011;23627;53.302;-6.362;2023-07-20T01:58:11;2.28;;;1.50;;
37787;SDS011;23627;53.302;-6.362;2023-07-20T02:00:37;2.38;;;1.52;;
37787;SDS011;23627;53.302;-6.362;2023-07-20T02:03:03;1.85;;;1.30;;
37787;SDS011;23627;53.302;-6.362;2023-07-20T02:05:29;3.45;;;2.05;;
37787;SDS011;23627;53.302;-6.362;2023-07-20T02:07:55;2.95;;;1.73;;
37787;SDS011;23627;53.302;-6.362;2023-07-20T02:10:21;2.42;;;1.80;;
37787;SDS011;23627;53.302;-6.362;2023-07-20T02:12:46;2.50;;;1.73;;
37787;SDS011;23627;53.302;-6.362;2023-07-20T02:15:13;2.30;;;1.55;;
37787;SDS011;23627;53.302;-6.362;2023-07-20T02:17:41;3.30;;;1.95;;
37787;SDS011;23627;53.302;-6.362;2023-07-20T02:20:07;4.80;;;1.70;;
37787;SDS011;23627;53.302;-6.362;2023-07-20T02:22:35;2.90;;;1.88;;
37787;SDS011;23627;53.302;-6.362;2023-07-20T02:25:03;3.15;;;1.80;;
37787;SDS011;23627;53.302;-6.362;2023-07-20T02:27:29;2.13;;;1.55;;
37787;SDS011;23627;53.302;-6.362;2023-07-20T02:29:55;2.92;;;2.00;;
37787;SDS011;23627;53.302;-6.362;2023-07-20T02:32:21;2.72;;;1.77;;
37787;SDS011;23627;53.302;-6.362;2023-07-20T02:34:47;1.98;;;1.60;;
37787;SDS011;23627;53.302;-6.362;2023-07-20T02:37:13;3.42;;;1.95;;
37787;SDS011;23627;53.302;-6.362;2023-07-20T02:39:39;3.25;;;1.90;;
37787;SDS011;23627;53.302;-6.362;2023-07-20T02:42:05;2.88;;;1.63;;
37787;SDS011;23627;53.302;-6.362;2023-07-20T02:44:31;3.00;;;1.90;;
37787;SDS011;23627;53.302;-6.362;2023-07-20T02:46:56;3.58;;;2.00;;
37787;SDS011;23627;53.302;-6.362;2023-07-20T02:49:22;3.05;;;2.20;;
37787;SDS011;23627;53.302;-6.362;2023-07-20T02:51:48;3.63;;;1.92;;
37787;SDS011;23627;53.302;-6.362;2023-07-20T02:54:14;4.50;;;2.10;;
37787;SDS011;23627;53.302;-6.362;2023-07-20T02:56:40;5.07;;;2.00;;
37787;SDS011;23627;53.302;-6.362;2023-07-20T02:59:06;4.10;;;2.33;;
37787;SDS011;23627;53.302;-6.362;2023-07-20T03:01:31;3.00;;;2.10;;
37787;SDS011;23627;53.302;-6.362;2023-07-20T03:03:57;3.47;;;2.00;;
37787;SDS011;23627;53.302;-6.362;2023-07-20T03:06:23;3.33;;;2.10;;
37787;SDS011;23627;53.302;-6.362;2023-07-20T03:08:49;3.60;;;1.88;;
37787;SDS011;23627;53.302;-6.362;2023-07-20T03:11:18;3.75;;;2.40;;
37787;SDS011;23627;53.302;-6.362;2023-07-20T03:13:45;3.50;;;2.00;;
37787;SDS011;23627;53.302;-6.362;2023-07-20T03:16:12;3.17;;;1.75;;
37787;SDS011;23627;53.302;-6.362;2023-07-20T03:18:40;2.50;;;1.90;;
37787;SDS011;23627;53.302;-6.362;2023-07-20T03:21:07;3.40;;;2.20;;
37787;SDS011;23627;53.302;-6.362;2023-07-20T03:23:33;3.97;;;2.25;;
37787;SDS011;23627;53.302;-6.362;2023-07-20T03:26:00;5.50;;;2.42;;
37787;SDS011;23627;53.302;-6.362;2023-07-20T03:28:26;2.58;;;1.90;;
37787;SDS011;23627;53.302;-6.362;2023-07-20T03:30:58;2.28;;;1.88;;
37787;SDS011;23627;53.302;-6.362;2023-07-20T03:33:27;6.45;;;2.17;;
37787;SDS011;23627;53.302;-6.362;2023-07-20T03:35:54;4.32;;;2.40;;
37787;SDS011;23627;53.302;-6.362;2023-07-20T03:38:21;5.13;;;2.38;;
37787;SDS011;23627;53.302;-6.362;2023-07-20T03:40:54;4.57;;;2.30;;
37787;SDS011;23627;53.302;-6.362;2023-07-20T03:43:21;2.92;;;2.25;;
37787;SDS011;23627;53.302;-6.362;2023-07-20T03:45:47;3.38;;;2.05;;
37787;SDS011;23627;53.302;-6.362;2023-07-20T03:48:17;3.67;;;2.10;;
37787;SDS011;23627;53.302;-6.362;2023-07-20T03:50:44;3.40;;;2.03;;
37787;SDS011;23627;53.302;-6.362;2023-07-20T03:53:11;4.00;;;2.10;;
37787;SDS011;23627;53.302;-6.362;2023-07-20T03:55:37;4.88;;;2.40;;
37787;SDS011;23627;53.302;-6.362;2023-07-20T03:58:05;3.50;;;2.40;;
37787;SDS011;23627;53.302;-6.362;2023-07-20T04:00:31;2.70;;;1.92;;
37787;SDS011;23627;53.302;-6.362;2023-07-20T04:02:57;3.05;;;1.95;;
37787;SDS011;23627;53.302;-6.362;2023-07-20T04:05:24;3.60;;;2.25;;
37787;SDS011;23627;53.302;-6.362;2023-07-20T04:07:50;3.35;;;2.15;;
37787;SDS011;23627;53.302;-6.362;2023-07-20T04:10:17;2.90;;;1.83;;
37787;SDS011;23627;53.302;-6.362;2023-07-20T04:12:45;3.92;;;2.40;;
37787;SDS011;23627;53.302;-6.362;2023-07-20T04:15:14;3.20;;;2.13;;
37787;SDS011;23627;53.302;-6.362;2023-07-20T04:17:40;3.13;;;2.13;;
37787;SDS011;23627;53.302;-6.362;2023-07-20T04:20:06;3.25;;;2.47;;
37787;SDS011;23627;53.302;-6.362;2023-07-20T04:22:33;3.20;;;2.17;;
37787;SDS011;23627;53.302;-6.362;2023-07-20T04:24:59;2.83;;;1.98;;
37787;SDS011;23627;53.302;-6.362;2023-07-20T04:27:25;3.15;;;2.05;;
37787;SDS011;23627;53.302;-6.362;2023-07-20T04:29:51;3.33;;;2.40;;
37787;SDS011;23627;53.302;-6.362;2023-07-20T04:32:17;4.45;;;2.55;;
37787;SDS011;23627;53.302;-6.362;2023-07-20T04:34:43;3.45;;;2.20;;
37787;SDS011;23627;53.302;-6.362;2023-07-20T04:37:09;3.50;;;2.20;;
37787;SDS011;23627;53.302;-6.362;2023-07-20T04:39:34;3.42;;;2.03;;
37787;SDS011;23627;53.302;-6.362;2023-07-20T04:42:00;4.22;;;2.40;;
37787;SDS011;23627;53.302;-6.362;2023-07-20T04:44:26;3.85;;;2.25;;
37787;SDS011;23627;53.302;-6.362;2023-07-20T04:50:13;2.90;;;2.13;;
37787;SDS011;23627;53.302;-6.362;2023-07-20T04:52:39;3.38;;;2.17;;
37787;SDS011;23627;53.302;-6.362;2023-07-20T04:55:05;3.95;;;2.28;;
37787;SDS011;23627;53.302;-6.362;2023-07-20T04:57:31;3.03;;;2.28;;
37787;SDS011;23627;53.302;-6.362;2023-07-20T04:59:57;3.08;;;2.00;;
37787;SDS011;23627;53.302;-6.362;2023-07-20T05:02:22;2.72;;;2.08;;
37787;SDS011;23627;53.302;-6.362;2023-07-20T05:04:48;4.05;;;2.20;;
37787;SDS011;23627;53.302;-6.362;2023-07-20T05:07:14;4.45;;;2.10;;
37787;SDS011;23627;53.302;-6.362;2023-07-20T05:09:39;2.92;;;2.00;;
37787;SDS011;23627;53.302;-6.362;2023-07-20T05:12:05;3.97;;;1.95;;
37787;SDS011;23627;53.302;-6.362;2023-07-20T05:14:32;3.97;;;2.42;;
37787;SDS011;23627;53.302;-6.362;2023-07-20T05:16:58;5.15;;;2.17;;
37787;SDS011;23627;53.302;-6.362;2023-07-20T05:19:24;3.33;;;2.30;;
37787;SDS011;23627;53.302;-6.362;2023-07-20T05:21:50;4.55;;;2.30;;
37787;SDS011;23627;53.302;-6.362;2023-07-20T05:24:16;4.53;;;2.65;;
37787;SDS011;23627;53.302;-6.362;2023-07-20T05:26:42;3.67;;;2.30;;
37787;SDS011;23627;53.302;-6.362;2023-07-20T05:29:07;3.60;;;2.15;;
37787;SDS011;23627;53.302;-6.362;2023-07-20T05:31:33;5.38;;;2.70;;
37787;SDS011;23627;53.302;-6.362;2023-07-20T05:33:59;3.92;;;2.50;;
37787;SDS011;23627;53.302;-6.362;2023-07-20T05:36:25;3.92;;;2.50;;
37787;SDS011;23627;53.302;-6.362;2023-07-20T05:38:50;3.88;;;2.42;;
37787;SDS011;23627;53.302;-6.362;2023-07-20T05:41:16;4.05;;;2.75;;
37787;SDS011;23627;53.302;-6.362;2023-07-20T05:43:42;5.65;;;2.60;;
37787;SDS011;23627;53.302;-6.362;2023-07-20T05:46:08;6.10;;;2.75;;
37787;SDS011;23627;53.302;-6.362;2023-07-20T05:48:34;3.83;;;2.50;;
37787;SDS011;23627;53.302;-6.362;2023-07-20T05:51:01;5.18;;;2.70;;
37787;SDS011;23627;53.302;-6.362;2023-07-20T05:53:26;3.78;;;2.78;;
37787;SDS011;23627;53.302;-6.362;2023-07-20T05:55:55;3.72;;;2.35;;
37787;SDS011;23627;53.302;-6.362;2023-07-20T05:58:21;4.72;;;2.72;;
37787;SDS011;23627;53.302;-6.362;2023-07-20T06:00:48;5.32;;;3.15;;
37787;SDS011;23627;53.302;-6.362;2023-07-20T06:03:14;5.30;;;3.03;;
37787;SDS011;23627;53.302;-6.362;2023-07-20T06:05:41;4.57;;;2.75;;
37787;SDS011;23627;53.302;-6.362;2023-07-20T06:08:07;5.03;;;3.20;;
37787;SDS011;23627;53.302;-6.362;2023-07-20T06:10:33;4.93;;;3.05;;
37787;SDS011;23627;53.302;-6.362;2023-07-20T06:12:59;4.70;;;3.10;;
37787;SDS011;23627;53.302;-6.362;2023-07-20T06:15:26;4.95;;;3.28;;
37787;SDS011;23627;53.302;-6.362;2023-07-20T06:18:01;4.82;;;3.10;;
37787;SDS011;23627;53.302;-6.362;2023-07-20T06:20:26;4.05;;;3.10;;
37787;SDS011;23627;53.302;-6.362;2023-07-20T06:22:52;6.10;;;3.63;;
37787;SDS011;23627;53.302;-6.362;2023-07-20T06:25:18;4.88;;;2.90;;
37787;SDS011;23627;53.302;-6.362;2023-07-20T06:27:45;8.50;;;3.55;;
37787;SDS011;23627;53.302;-6.362;2023-07-20T06:30:11;6.07;;;3.92;;
37787;SDS011;23627;53.302;-6.362;2023-07-20T06:32:37;5.45;;;2.70;;
37787;SDS011;23627;53.302;-6.362;2023-07-20T06:35:04;5.30;;;3.28;;
37787;SDS011;23627;53.302;-6.362;2023-07-20T06:37:30;5.07;;;3.53;;
37787;SDS011;23627;53.302;-6.362;2023-07-20T06:39:56;5.00;;;3.30;;
37787;SDS011;23627;53.302;-6.362;2023-07-20T06:42:21;4.90;;;3.50;;
37787;SDS011;23627;53.302;-6.362;2023-07-20T06:44:47;5.57;;;3.80;;
37787;SDS011;23627;53.302;-6.362;2023-07-20T06:47:13;4.90;;;3.40;;
37787;SDS011;23627;53.302;-6.362;2023-07-20T06:49:38;6.70;;;3.50;;
37787;SDS011;23627;53.302;-6.362;2023-07-20T06:52:04;6.57;;;4.10;;
37787;SDS011;23627;53.302;-6.362;2023-07-20T06:54:30;5.55;;;3.47;;
37787;SDS011;23627;53.302;-6.362;2023-07-20T06:56:56;5.57;;;3.80;;
37787;SDS011;23627;53.302;-6.362;2023-07-20T06:59:22;5.82;;;3.80;;
37787;SDS011;23627;53.302;-6.362;2023-07-20T07:01:49;5.05;;;3.35;;
37787;SDS011;23627;53.302;-6.362;2023-07-20T07:04:15;5.15;;;3.53;;
37787;SDS011;23627;53.302;-6.362;2023-07-20T07:06:41;4.85;;;3.42;;
37787;SDS011;23627;53.302;-6.362;2023-07-20T07:09:06;6.07;;;3.60;;
37787;SDS011;23627;53.302;-6.362;2023-07-20T07:11:33;7.68;;;3.50;;
37787;SDS011;23627;53.302;-6.362;2023-07-20T07:13:59;5.97;;;3.67;;
37787;SDS011;23627;53.302;-6.362;2023-07-20T07:16:24;6.20;;;3.80;;
37787;SDS011;23627;53.302;-6.362;2023-07-20T07:18:50;6.03;;;3.78;;
37787;SDS011;23627;53.302;-6.362;2023-07-20T07:21:16;6.60;;;3.70;;
37787;SDS011;23627;53.302;-6.362;2023-07-20T07:23:42;5.38;;;3.03;;
37787;SDS011;23627;53.302;-6.362;2023-07-20T07:26:09;5.10;;;3.65;;
37787;SDS011;23627;53.302;-6.362;2023-07-20T07:28:34;5.55;;;3.65;;
37787;SDS011;23627;53.302;-6.362;2023-07-20T07:31:02;6.28;;;3.75;;
37787;SDS011;23627;53.302;-6.362;2023-07-20T07:33:30;6.30;;;4.00;;
37787;SDS011;23627;53.302;-6.362;2023-07-20T07:35:56;5.35;;;3.67;;
37787;SDS011;23627;53.302;-6.362;2023-07-20T07:38:22;4.80;;;3.50;;
37787;SDS011;23627;53.302;-6.362;2023-07-20T07:40:48;7.13;;;4.35;;
37787;SDS011;23627;53.302;-6.362;2023-07-20T07:43:14;7.47;;;4.78;;
37787;SDS011;23627;53.302;-6.362;2023-07-20T07:45:40;7.40;;;4.28;;
37787;SDS011;23627;53.302;-6.362;2023-07-20T07:48:06;7.75;;;4.80;;
37787;SDS011;23627;53.302;-6.362;2023-07-20T07:50:33;7.07;;;5.07;;
37787;SDS011;23627;53.302;-6.362;2023-07-20T07:52:59;9.38;;;5.28;;
37787;SDS011;23627;53.302;-6.362;2023-07-20T07:55:25;8.27;;;6.28;;
37787;SDS011;23627;53.302;-6.362;2023-07-20T07:57:54;7.72;;;5.38;;
37787;SDS011;23627;53.302;-6.362;2023-07-20T08:00:20;8.98;;;5.55;;
37787;SDS011;23627;53.302;-6.362;2023-07-20T08:02:46;8.15;;;5.30;;
37787;SDS011;23627;53.302;-6.362;2023-07-20T08:05:13;8.48;;;5.68;;
37787;SDS011;23627;53.302;-6.362;2023-07-20T08:07:39;7.75;;;5.80;;
37787;SDS011;23627;53.302;-6.362;2023-07-20T08:10:05;9.02;;;5.35;;
37787;SDS011;23627;53.302;-6.362;2023-07-20T08:12:31;8.85;;;5.32;;
37787;SDS011;23627;53.302;-6.362;2023-07-20T08:14:57;7.47;;;5.38;;
37787;SDS011;23627;53.302;-6.362;2023-07-20T08:17:23;7.68;;;5.32;;
37787;SDS011;23627;53.302;-6.362;2023-07-20T08:19:49;7.25;;;4.88;;
37787;SDS011;23627;53.302;-6.362;2023-07-20T08:22:15;7.47;;;5.80;;
37787;SDS011;23627;53.302;-6.362;2023-07-20T08:24:41;7.13;;;5.43;;
37787;SDS011;23627;53.302;-6.362;2023-07-20T08:27:07;7.82;;;5.68;;
37787;SDS011;23627;53.302;-6.362;2023-07-20T08:29:34;9.85;;;5.60;;
37787;SDS011;23627;53.302;-6.362;2023-07-20T08:32:00;7.88;;;5.43;;
37787;SDS011;23627;53.302;-6.362;2023-07-20T08:34:26;9.55;;;5.75;;
37787;SDS011;23627;53.302;-6.362;2023-07-20T08:36:52;7.20;;;5.40;;
37787;SDS011;23627;53.302;-6.362;2023-07-20T08:39:17;8.15;;;6.07;;
37787;SDS011;23627;53.302;-6.362;2023-07-20T08:41:43;8.07;;;5.55;;
37787;SDS011;23627;53.302;-6.362;2023-07-20T08:44:10;8.90;;;5.60;;
37787;SDS011;23627;53.302;-6.362;2023-07-20T08:46:37;10.90;;;5.72;;
37787;SDS011;23627;53.302;-6.362;2023-07-20T08:49:03;6.20;;;5.18;;
37787;SDS011;23627;53.302;-6.362;2023-07-20T08:51:30;6.18;;;4.97;;
37787;SDS011;23627;53.302;-6.362;2023-07-20T08:53:57;6.88;;;5.07;;
37787;SDS011;23627;53.302;-6.362;2023-07-20T08:56:24;5.68;;;4.15;;
37787;SDS011;23627;53.302;-6.362;2023-07-20T08:58:52;5.78;;;4.50;;
37787;SDS011;23627;53.302;-6.362;2023-07-20T09:01:19;5.32;;;4.03;;
37787;SDS011;23627;53.302;-6.362;2023-07-20T09:03:45;5.95;;;3.85;;
37787;SDS011;23627;53.302;-6.362;2023-07-20T09:06:11;6.25;;;4.32;;
37787;SDS011;23627;53.302;-6.362;2023-07-20T09:08:38;5.20;;;4.30;;
37787;SDS011;23627;53.302;-6.362;2023-07-20T09:11:05;4.68;;;3.80;;
37787;SDS011;23627;53.302;-6.362;2023-07-20T09:13:34;6.45;;;4.57;;
37787;SDS011;23627;53.302;-6.362;2023-07-20T09:16:00;5.30;;;4.10;;
37787;SDS011;23627;53.302;-6.362;2023-07-20T09:18:30;5.57;;;3.85;;
37787;SDS011;23627;53.302;-6.362;2023-07-20T09:20:58;4.97;;;4.03;;
37787;SDS011;23627;53.302;-6.362;2023-07-20T09:23:30;5.80;;;4.22;;
37787;SDS011;23627;53.302;-6.362;2023-07-20T09:26:00;5.28;;;4.13;;
37787;SDS011;23627;53.302;-6.362;2023-07-20T09:28:26;6.15;;;4.25;;
37787;SDS011;23627;53.302;-6.362;2023-07-20T09:30:54;6.80;;;4.50;;
37787;SDS011;23627;53.302;-6.362;2023-07-20T09:33:22;8.65;;;4.35;;
37787;SDS011;23627;53.302;-6.362;2023-07-20T09:35:48;4.72;;;3.92;;
37787;SDS011;23627;53.302;-6.362;2023-07-20T09:38:14;5.30;;;4.07;;
37787;SDS011;23627;53.302;-6.362;2023-07-20T09:40:40;5.20;;;4.03;;
37787;SDS011;23627;53.302;-6.362;2023-07-20T09:43:10;5.65;;;4.13;;
37787;SDS011;23627;53.302;-6.362;2023-07-20T09:48:06;6.35;;;4.22;;
37787;SDS011;23627;53.302;-6.362;2023-07-20T09:50:34;5.88;;;3.95;;
37787;SDS011;23627;53.302;-6.362;2023-07-20T09:53:05;5.47;;;3.95;;
37787;SDS011;23627;53.302;-6.362;2023-07-20T09:55:32;5.35;;;4.03;;
37787;SDS011;23627;53.302;-6.362;2023-07-20T09:57:59;6.10;;;4.13;;
37787;SDS011;23627;53.302;-6.362;2023-07-20T10:00:25;6.25;;;4.00;;
37787;SDS011;23627;53.302;-6.362;2023-07-20T10:02:51;5.55;;;3.95;;
37787;SDS011;23627;53.302;-6.362;2023-07-20T10:05:19;6.03;;;3.60;;
37787;SDS011;23627;53.302;-6.362;2023-07-20T10:07:49;4.88;;;3.88;;
37787;SDS011;23627;53.302;-6.362;2023-07-20T10:10:16;5.32;;;3.90;;
37787;SDS011;23627;53.302;-6.362;2023-07-20T10:12:43;5.78;;;4.28;;
37787;SDS011;23627;53.302;-6.362;2023-07-20T10:17:48;5.72;;;3.80;;
37787;SDS011;23627;53.302;-6.362;2023-07-20T10:20:45;6.53;;;4.45;;
37787;SDS011;23627;53.302;-6.362;2023-07-20T10:23:12;6.22;;;4.30;;
37787;SDS011;23627;53.302;-6.362;2023-07-20T10:25:38;4.63;;;3.50;;
37787;SDS011;23627;53.302;-6.362;2023-07-20T10:28:06;6.47;;;3.78;;
37787;SDS011;23627;53.302;-6.362;2023-07-20T10:30:35;5.78;;;4.20;;
37787;SDS011;23627;53.302;-6.362;2023-07-20T10:33:05;4.82;;;3.67;;
37787;SDS011;23627;53.302;-6.362;2023-07-20T10:35:50;4.78;;;3.92;;
37787;SDS011;23627;53.302;-6.362;2023-07-20T10:38:17;9.23;;;3.85;;
37787;SDS011;23627;53.302;-6.362;2023-07-20T10:40:43;6.75;;;3.90;;
37787;SDS011;23627;53.302;-6.362;2023-07-20T10:43:20;5.40;;;4.07;;
37787;SDS011;23627;53.302;-6.362;2023-07-20T10:45:50;4.85;;;3.67;;
37787;SDS011;23627;53.302;-6.362;2023-07-20T10:48:20;3.95;;;3.50;;
37787;SDS011;23627;53.302;-6.362;2023-07-20T10:51:08;5.85;;;4.07;;
37787;SDS011;23627;53.302;-6.362;2023-07-20T10:53:39;6.38;;;4.43;;
37787;SDS011;23627;53.302;-6.362;2023-07-20T10:56:05;6.00;;;4.65;;
37787;SDS011;23627;53.302;-6.362;2023-07-20T10:58:37;7.30;;;5.10;;
37787;SDS011;23627;53.302;-6.362;2023-07-20T11:01:03;6.40;;;5.30;;
37787;SDS011;23627;53.302;-6.362;2023-07-20T11:03:31;6.00;;;4.75;;
37787;SDS011;23627;53.302;-6.362;2023-07-20T11:05:58;6.03;;;4.95;;
37787;SDS011;23627;53.302;-6.362;2023-07-20T11:08:40;7.03;;;5.18;;
37787;SDS011;23627;53.302;-6.362;2023-07-20T11:11:22;7.45;;;5.10;;
37787;SDS011;23627;53.302;-6.362;2023-07-20T11:14:08;6.55;;;5.32;;
37787;SDS011;23627;53.302;-6.362;2023-07-20T11:16:42;6.28;;;4.97;;
37787;SDS011;23627;53.302;-6.362;2023-07-20T11:19:17;7.28;;;5.30;;
37787;SDS011;23627;53.302;-6.362;2023-07-20T11:21:45;5.88;;;4.88;;
37787;SDS011;23627;53.302;-6.362;2023-07-20T11:24:15;6.85;;;5.38;;
37787;SDS011;23627;53.302;-6.362;2023-07-20T11:29:20;6.88;;;5.65;;
37787;SDS011;23627;53.302;-6.362;2023-07-20T11:31:48;8.10;;;5.30;;
37787;SDS011;23627;53.302;-6.362;2023-07-20T11:36:41;7.60;;;5.32;;
37787;SDS011;23627;53.302;-6.362;2023-07-20T11:39:12;6.63;;;5.25;;
37787;SDS011;23627;53.302;-6.362;2023-07-20T11:41:41;6.88;;;5.20;;
37787;SDS011;23627;53.302;-6.362;2023-07-20T11:44:09;8.30;;;5.20;;
37787;SDS011;23627;53.302;-6.362;2023-07-20T11:46:41;5.90;;;5.20;;
37787;SDS011;23627;53.302;-6.362;2023-07-20T11:49:09;6.40;;;5.18;;
37787;SDS011;23627;53.302;-6.362;2023-07-20T11:51:35;6.00;;;5.10;;
37787;SDS011;23627;53.302;-6.362;2023-07-20T11:54:03;5.88;;;4.82;;
37787;SDS011;23627;53.302;-6.362;2023-07-20T11:56:29;5.70;;;4.80;;
37787;SDS011;23627;53.302;-6.362;2023-07-20T11:58:56;5.88;;;4.70;;
37787;SDS011;23627;53.302;-6.362;2023-07-20T12:01:25;5.60;;;4.65;;
37787;SDS011;23627;53.302;-6.362;2023-07-20T12:04:01;7.25;;;4.80;;
37787;SDS011;23627;53.302;-6.362;2023-07-20T12:06:31;6.80;;;4.70;;
37787;SDS011;23627;53.302;-6.362;2023-07-20T12:08:57;6.18;;;4.60;;
37787;SDS011;23627;53.302;-6.362;2023-07-20T12:14:00;6.47;;;4.97;;
37787;SDS011;23627;53.302;-6.362;2023-07-20T12:16:26;6.28;;;4.78;;
37787;SDS011;23627;53.302;-6.362;2023-07-20T12:18:59;6.85;;;5.20;;
37787;SDS011;23627;53.302;-6.362;2023-07-20T12:21:37;6.25;;;5.25;;
37787;SDS011;23627;53.302;-6.362;2023-07-20T12:24:05;6.90;;;5.07;;
37787;SDS011;23627;53.302;-6.362;2023-07-20T12:26:32;7.13;;;5.47;;
37787;SDS011;23627;53.302;-6.362;2023-07-20T12:28:58;7.03;;;5.60;;
37787;SDS011;23627;53.302;-6.362;2023-07-20T12:31:25;6.88;;;5.15;;
37787;SDS011;23627;53.302;-6.362;2023-07-20T12:33:52;7.78;;;5.53;;
37787;SDS011;23627;53.302;-6.362;2023-07-20T12:36:20;6.57;;;5.30;;
37787;SDS011;23627;53.302;-6.362;2023-07-20T12:38:46;6.70;;;5.35;;
37787;SDS011;23627;53.302;-6.362;2023-07-20T12:41:12;7.30;;;5.82;;
37787;SDS011;23627;53.302;-6.362;2023-07-20T12:43:39;6.88;;;5.22;;
37787;SDS011;23627;53.302;-6.362;2023-07-20T12:46:05;7.30;;;5.40;;
37787;SDS011;23627;53.302;-6.362;2023-07-20T12:48:31;6.68;;;5.35;;
37787;SDS011;23627;53.302;-6.362;2023-07-20T12:50:58;7.05;;;5.45;;
37787;SDS011;23627;53.302;-6.362;2023-07-20T12:53:23;6.18;;;5.30;;
37787;SDS011;23627;53.302;-6.362;2023-07-20T12:55:49;5.63;;;4.90;;
37787;SDS011;23627;53.302;-6.362;2023-07-20T12:58:15;6.75;;;5.45;;
37787;SDS011;23627;53.302;-6.362;2023-07-20T13:00:41;7.80;;;5.43;;
37787;SDS011;23627;53.302;-6.362;2023-07-20T13:03:07;7.47;;;5.05;;
37787;SDS011;23627;53.302;-6.362;2023-07-20T13:05:33;6.47;;;5.40;;
37787;SDS011;23627;53.302;-6.362;2023-07-20T13:08:00;6.78;;;5.60;;
37787;SDS011;23627;53.302;-6.362;2023-07-20T13:10:27;7.22;;;5.38;;
37787;SDS011;23627;53.302;-6.362;2023-07-20T13:12:54;6.72;;;5.70;;
37787;SDS011;23627;53.302;-6.362;2023-07-20T13:15:20;8.18;;;5.47;;
37787;SDS011;23627;53.302;-6.362;2023-07-20T13:17:46;7.57;;;6.60;;
37787;SDS011;23627;53.302;-6.362;2023-07-20T13:20:13;7.82;;;6.32;;
37787;SDS011;23627;53.302;-6.362;2023-07-20T13:22:39;7.43;;;6.20;;
37787;SDS011;23627;53.302;-6.362;2023-07-20T13:25:05;8.88;;;6.68;;
37787;SDS011;23627;53.302;-6.362;2023-07-20T13:27:32;8.80;;;6.80;;
37787;SDS011;23627;53.302;-6.362;2023-07-20T13:29:59;7.18;;;6.28;;
37787;SDS011;23627;53.302;-6.362;2023-07-20T13:32:26;8.40;;;6.53;;
37787;SDS011;23627;53.302;-6.362;2023-07-20T13:34:52;8.00;;;6.70;;
37787;SDS011;23627;53.302;-6.362;2023-07-20T13:37:18;8.45;;;6.95;;
37787;SDS011;23627;53.302;-6.362;2023-07-20T13:39:43;8.25;;;6.47;;
37787;SDS011;23627;53.302;-6.362;2023-07-20T13:42:09;7.70;;;6.72;;
37787;SDS011;23627;53.302;-6.362;2023-07-20T13:44:37;8.57;;;7.20;;
37787;SDS011;23627;53.302;-6.362;2023-07-20T13:47:03;8.50;;;6.72;;
37787;SDS011;23627;53.302;-6.362;2023-07-20T13:49:32;7.57;;;6.78;;
37787;SDS011;23627;53.302;-6.362;2023-07-20T13:51:58;8.48;;;7.20;;
37787;SDS011;23627;53.302;-6.362;2023-07-20T13:54:24;10.50;;;7.82;;
37787;SDS011;23627;53.302;-6.362;2023-07-20T13:56:51;8.32;;;7.32;;
37787;SDS011;23627;53.302;-6.362;2023-07-20T13:59:17;8.82;;;7.60;;
37787;SDS011;23627;53.302;-6.362;2023-07-20T14:01:43;8.65;;;7.40;;
37787;SDS011;23627;53.302;-6.362;2023-07-20T14:04:09;8.30;;;7.43;;
37787;SDS011;23627;53.302;-6.362;2023-07-20T14:06:34;9.38;;;7.68;;
37787;SDS011;23627;53.302;-6.362;2023-07-20T14:09:01;10.57;;;8.63;;
37787;SDS011;23627;53.302;-6.362;2023-07-20T14:11:28;10.23;;;8.15;;
37787;SDS011;23627;53.302;-6.362;2023-07-20T14:13:54;11.73;;;8.80;;
37787;SDS011;23627;53.302;-6.362;2023-07-20T14:16:23;11.52;;;8.18;;
37787;SDS011;23627;53.302;-6.362;2023-07-20T14:18:49;10.65;;;8.20;;
37787;SDS011;23627;53.302;-6.362;2023-07-20T14:21:15;9.32;;;8.20;;
37787;SDS011;23627;53.302;-6.362;2023-07-20T14:23:42;9.02;;;7.82;;
37787;SDS011;23627;53.302;-6.362;2023-07-20T14:26:09;10.82;;;8.63;;
37787;SDS011;23627;53.302;-6.362;2023-07-20T14:28:35;10.07;;;7.75;;
37787;SDS011;23627;53.302;-6.362;2023-07-20T14:31:01;10.55;;;8.10;;
37787;SDS011;23627;53.302;-6.362;2023-07-20T14:33:26;10.10;;;8.20;;
37787;SDS011;23627;53.302;-6.362;2023-07-20T14:35:52;9.50;;;8.18;;
37787;SDS011;23627;53.302;-6.362;2023-07-20T14:38:18;10.27;;;8.38;;
37787;SDS011;23627;53.302;-6.362;2023-07-20T14:40:43;11.35;;;8.25;;
37787;SDS011;23627;53.302;-6.362;2023-07-20T14:43:10;11.18;;;8.18;;
37787;SDS011;23627;53.302;-6.362;2023-07-20T14:45:36;10.85;;;8.50;;
37787;SDS011;23627;53.302;-6.362;2023-07-20T14:48:05;9.30;;;8.07;;
37787;SDS011;23627;53.302;-6.362;2023-07-20T14:50:31;9.07;;;7.88;;
37787;SDS011;23627;53.302;-6.362;2023-07-20T14:52:57;10.02;;;8.18;;
37787;SDS011;23627;53.302;-6.362;2023-07-20T14:55:22;10.90;;;8.70;;
37787;SDS011;23627;53.302;-6.362;2023-07-20T14:57:48;9.88;;;8.13;;
37787;SDS011;23627;53.302;-6.362;2023-07-20T15:00:14;9.95;;;8.23;;